createdAt,value
2017-02-06T00:00:27.320Z,0
2017-02-06T00:01:14.314Z,0
2017-02-06T00:01:57.391Z,0
2017-02-06T00:02:55.310Z,0
2017-02-06T00:03:47.304Z,0
2017-02-06T00:04:29.619Z,0
2017-02-06T00:05:11.496Z,0
2017-02-06T00:05:52.882Z,0
2017-02-06T00:06:39.802Z,0
2017-02-06T00:07:38.899Z,0
2017-02-06T00:08:19.991Z,0
2017-02-06T00:09:05.787Z,0
2017-02-06T00:09:52.999Z,0
2017-02-06T00:10:35.794Z,0
2017-02-06T00:11:17.999Z,0
2017-02-06T00:12:02.983Z,0
2017-02-06T00:12:47.797Z,0
2017-02-06T00:13:33.207Z,0
2017-02-06T00:14:17.284Z,0
2017-02-06T00:14:59.492Z,0
2017-02-06T00:15:45.383Z,0
2017-02-06T00:16:27.790Z,0
2017-02-06T00:17:13.887Z,0
2017-02-06T00:17:56.982Z,0
2017-02-06T00:18:37.465Z,0
2017-02-06T00:19:20.400Z,0
2017-02-06T00:20:10.508Z,0
2017-02-06T00:20:55.891Z,0
2017-02-06T00:21:40.807Z,0
2017-02-06T00:22:28.803Z,0
2017-02-06T00:23:19.797Z,0
2017-02-06T00:24:07.119Z,0
2017-02-06T00:28:14.727Z,0
2017-02-06T00:29:03.427Z,0
2017-02-06T00:29:47.304Z,0
2017-02-06T00:30:28.469Z,0
2017-02-06T00:31:11.326Z,0
2017-02-06T00:31:53.295Z,0
2017-02-06T00:32:36.407Z,0
2017-02-06T00:33:19.302Z,0
2017-02-06T00:34:03.518Z,0
2017-02-06T00:34:46.808Z,0
2017-02-06T00:35:33.878Z,0
2017-02-06T00:36:29.332Z,0
2017-02-06T00:37:12.505Z,0
2017-02-06T00:37:58.313Z,0
2017-02-06T00:38:44.297Z,0
2017-02-06T00:39:29.398Z,0
2017-02-06T00:40:12.387Z,0
2017-02-06T00:40:53.798Z,0
2017-02-06T00:41:35.211Z,0
2017-02-06T00:42:20.307Z,0
2017-02-06T00:43:06.348Z,0
2017-02-06T00:43:53.497Z,0
2017-02-06T00:44:34.885Z,0
2017-02-06T00:45:17.898Z,0
2017-02-06T00:46:02.886Z,0
2017-02-06T00:46:44.820Z,0
2017-02-06T00:47:29.798Z,0
2017-02-06T00:48:12.892Z,0
2017-02-06T00:48:58.359Z,0
2017-02-06T00:49:46.306Z,0
2017-02-06T00:50:28.644Z,0
2017-02-06T00:51:24.610Z,0
2017-02-06T00:52:23.797Z,0
2017-02-06T00:53:05.976Z,0
2017-02-06T00:53:49.815Z,0
2017-02-06T00:54:30.308Z,0
2017-02-06T00:55:20.437Z,0
2017-02-06T00:56:07.308Z,0
2017-02-06T00:56:50.816Z,0
2017-02-06T00:57:33.993Z,0
2017-02-06T00:58:15.099Z,0
2017-02-06T00:59:02.811Z,0
2017-02-06T00:59:50.803Z,0
2017-02-06T01:00:32.810Z,0
2017-02-06T01:01:15.824Z,0
2017-02-06T01:03:51.889Z,0
2017-02-06T01:04:34.907Z,0
2017-02-06T01:05:25.967Z,0
2017-02-06T01:06:07.866Z,0
2017-02-06T01:06:59.874Z,0
2017-02-06T01:07:44.962Z,0
2017-02-06T01:08:38.870Z,0
2017-02-06T01:09:22.912Z,0
2017-02-06T01:10:10.333Z,0
2017-02-06T01:11:01.454Z,0
2017-02-06T01:11:43.546Z,0
2017-02-06T01:14:14.837Z,0
2017-02-06T01:14:56.149Z,0
2017-02-06T01:15:38.372Z,0
2017-02-06T01:16:30.138Z,0
2017-02-06T01:17:21.026Z,0
2017-02-06T01:18:04.124Z,0
2017-02-06T01:18:47.208Z,0
2017-02-06T01:19:29.643Z,0
2017-02-06T01:20:11.625Z,0
2017-02-06T01:20:52.803Z,0
2017-02-06T01:21:34.099Z,0
2017-02-06T01:22:18.026Z,0
2017-02-06T01:23:01.009Z,0
2017-02-06T01:23:56.136Z,0
2017-02-06T01:24:40.206Z,0
2017-02-06T01:25:22.047Z,0
2017-02-06T01:26:04.188Z,0
2017-02-06T01:26:52.009Z,0
2017-02-06T01:27:39.014Z,0
2017-02-06T01:28:29.164Z,0
2017-02-06T01:29:12.100Z,0
2017-02-06T01:29:58.041Z,0
2017-02-06T01:30:39.401Z,0
2017-02-06T01:31:26.031Z,0
2017-02-06T01:32:09.033Z,0
2017-02-06T01:32:57.029Z,0
2017-02-06T01:33:38.307Z,0
2017-02-06T01:34:24.001Z,0
2017-02-06T01:35:08.105Z,0
2017-02-06T01:35:51.148Z,0
2017-02-06T01:36:37.188Z,0
2017-02-06T01:37:18.406Z,0
2017-02-06T01:38:02.107Z,0
2017-02-06T01:38:44.184Z,0
2017-02-06T01:39:25.355Z,0
2017-02-06T01:40:10.093Z,0
2017-02-06T01:40:52.606Z,0
2017-02-06T01:41:35.535Z,0
2017-02-06T01:42:17.539Z,0
2017-02-06T01:43:02.541Z,0
2017-02-06T01:43:45.715Z,0
2017-02-06T01:44:26.205Z,0
2017-02-06T01:45:06.679Z,0
2017-02-06T01:45:54.525Z,0
2017-02-06T01:46:41.537Z,0
2017-02-06T01:47:24.618Z,0
2017-02-06T01:48:09.535Z,0
2017-02-06T01:48:51.511Z,0
2017-02-06T01:49:42.611Z,0
2017-02-06T01:50:33.707Z,0
2017-02-06T01:51:17.554Z,0
2017-02-06T01:51:59.059Z,0
2017-02-06T01:52:44.136Z,0
2017-02-06T01:53:27.035Z,0
2017-02-06T01:54:15.024Z,0
2017-02-06T01:54:58.026Z,0
2017-02-06T01:55:46.051Z,0
2017-02-06T01:56:28.307Z,0
2017-02-06T01:57:11.013Z,0
2017-02-06T01:57:55.003Z,0
2017-02-06T01:58:43.173Z,0
2017-02-06T01:59:38.012Z,0
2017-02-06T02:00:24.041Z,0
2017-02-06T02:01:09.023Z,0
2017-02-06T02:02:03.030Z,0
2017-02-06T02:02:49.046Z,0
2017-02-06T02:03:35.024Z,0
2017-02-06T02:04:27.031Z,0
2017-02-06T02:05:12.302Z,0
2017-02-06T02:05:58.111Z,0
2017-02-06T02:06:38.613Z,0
2017-02-06T02:09:08.171Z,0
2017-02-06T02:09:52.239Z,0
2017-02-06T02:10:36.144Z,0
2017-02-06T02:11:18.160Z,0
2017-02-06T02:13:34.458Z,0
2017-02-06T02:14:25.371Z,0
2017-02-06T02:15:06.594Z,0
2017-02-06T02:15:54.332Z,0
2017-02-06T02:16:37.276Z,0
2017-02-06T02:17:19.754Z,0
2017-02-06T02:18:02.876Z,0
2017-02-06T02:18:45.936Z,0
2017-02-06T02:19:28.183Z,0
2017-02-06T02:20:09.447Z,0
2017-02-06T02:20:51.438Z,0
2017-02-06T02:21:35.565Z,0
2017-02-06T02:22:20.865Z,0
2017-02-06T02:23:09.778Z,0
2017-02-06T02:24:01.775Z,0
2017-02-06T02:24:49.765Z,0
2017-02-06T02:25:31.887Z,0
2017-02-06T02:26:20.762Z,0
2017-02-06T02:27:02.768Z,0
2017-02-06T02:27:46.776Z,0
2017-02-06T02:28:27.219Z,0
2017-02-06T02:29:13.256Z,0
2017-02-06T02:29:54.657Z,0
2017-02-06T02:30:36.756Z,0
2017-02-06T02:31:17.311Z,0
2017-02-06T02:31:58.445Z,0
2017-02-06T02:32:43.260Z,0
2017-02-06T02:33:28.260Z,0
2017-02-06T02:34:12.272Z,0
2017-02-06T02:34:55.439Z,0
2017-02-06T02:35:37.391Z,0
2017-02-06T03:01:42.970Z,0
2017-02-06T03:05:01.758Z,0
2017-02-06T03:05:42.753Z,0
2017-02-06T03:06:24.962Z,0
2017-02-06T03:07:15.593Z,0
2017-02-06T03:07:58.778Z,0
2017-02-06T03:08:41.183Z,0
2017-02-06T03:09:24.179Z,0
2017-02-06T03:10:04.663Z,0
2017-02-06T03:10:47.586Z,0
2017-02-06T03:11:31.662Z,0
2017-02-06T03:12:20.566Z,0
2017-02-06T03:13:09.663Z,0
2017-02-06T03:13:57.609Z,0
2017-02-06T03:14:41.603Z,0
2017-02-06T03:15:24.742Z,0
2017-02-06T03:16:06.919Z,0
2017-02-06T03:16:51.712Z,0
2017-02-06T03:17:43.570Z,0
2017-02-06T03:18:26.748Z,0
2017-02-06T03:19:08.141Z,0
2017-02-06T03:19:56.066Z,0
2017-02-06T03:24:05.650Z,0
2017-02-06T03:24:46.113Z,0
2017-02-06T03:25:30.394Z,0
2017-02-06T03:26:10.836Z,0
2017-02-06T03:26:53.862Z,0
2017-02-06T03:27:40.158Z,0
2017-02-06T03:28:23.426Z,0
2017-02-06T03:29:13.475Z,0
2017-02-06T03:30:01.517Z,0
2017-02-06T03:30:45.444Z,0
2017-02-06T03:31:29.400Z,0
2017-02-06T03:32:14.431Z,0
2017-02-06T03:32:58.850Z,0
2017-02-06T03:33:42.928Z,0
2017-02-06T03:34:33.885Z,0
2017-02-06T03:35:18.854Z,0
2017-02-06T03:36:02.044Z,0
2017-02-06T03:36:46.921Z,0
2017-02-06T03:37:38.169Z,0
2017-02-06T03:38:20.962Z,0
2017-02-06T03:39:06.887Z,0
2017-02-06T03:39:56.950Z,0
2017-02-06T03:40:41.122Z,0
2017-02-06T03:41:23.531Z,0
2017-02-06T03:42:10.386Z,0
2017-02-06T03:42:55.354Z,0
2017-02-06T03:43:42.358Z,0
2017-02-06T03:44:26.442Z,0
2017-02-06T03:45:10.536Z,0
2017-02-06T03:45:53.523Z,0
2017-02-06T03:46:38.338Z,0
2017-02-06T03:47:20.345Z,0
2017-02-06T03:48:01.337Z,0
2017-02-06T03:48:44.440Z,0
2017-02-06T03:49:25.439Z,0
2017-02-06T03:50:07.541Z,0
2017-02-06T03:50:48.839Z,0
2017-02-06T03:53:20.296Z,0
2017-02-06T03:54:06.285Z,0
2017-02-06T03:54:51.205Z,0
2017-02-06T03:55:37.253Z,0
2017-02-06T03:56:19.492Z,0
2017-02-06T03:57:02.860Z,0
2017-02-06T03:57:49.753Z,0
2017-02-06T03:58:33.691Z,0
2017-02-06T03:59:21.788Z,0
2017-02-06T04:00:04.700Z,0
2017-02-06T04:00:48.891Z,0
2017-02-06T04:01:29.337Z,0
2017-02-06T04:02:14.264Z,0
2017-02-06T04:03:01.337Z,0
2017-02-06T04:03:45.272Z,0
2017-02-06T04:04:29.455Z,0
2017-02-06T04:05:16.185Z,0
2017-02-06T04:06:00.349Z,0
2017-02-06T04:06:40.841Z,0
2017-02-06T04:07:22.050Z,0
2017-02-06T04:08:08.882Z,0
2017-02-06T04:08:49.959Z,0
2017-02-06T04:09:33.882Z,0
2017-02-06T04:10:14.380Z,0
2017-02-06T04:10:55.411Z,0
2017-02-06T04:11:38.490Z,0
2017-02-06T04:12:20.663Z,0
2017-02-06T04:13:07.742Z,0
2017-02-06T04:13:53.708Z,0
2017-02-06T04:14:34.997Z,0
2017-02-06T04:15:15.558Z,0
2017-02-06T04:15:56.034Z,0
2017-02-06T04:16:38.260Z,0
2017-02-06T04:17:22.362Z,0
2017-02-06T04:18:06.494Z,0
2017-02-06T04:18:48.302Z,0
2017-02-06T04:19:29.684Z,0
2017-02-06T04:20:18.845Z,0
2017-02-06T04:21:04.751Z,0
2017-02-06T04:21:47.841Z,0
2017-02-06T04:22:29.772Z,0
2017-02-06T04:23:10.851Z,0
2017-02-06T04:23:53.837Z,0
2017-02-06T04:24:36.773Z,0
2017-02-06T04:25:20.742Z,0
2017-02-06T04:26:07.666Z,0
2017-02-06T04:26:52.707Z,0
2017-02-06T04:27:35.756Z,0
2017-02-06T04:28:17.053Z,0
2017-02-06T04:28:59.164Z,0
2017-02-06T04:29:49.272Z,0
2017-02-06T04:30:30.279Z,0
2017-02-06T04:31:13.189Z,0
2017-02-06T04:31:56.178Z,0
2017-02-06T04:32:42.171Z,0
2017-02-06T04:33:22.736Z,0
2017-02-06T04:34:03.953Z,0
2017-02-06T04:34:47.712Z,0
2017-02-06T04:35:30.785Z,0
2017-02-06T04:36:13.782Z,0
2017-02-06T04:36:55.176Z,0
2017-02-06T04:37:37.618Z,0
2017-02-06T04:38:18.870Z,0
2017-02-06T04:39:00.287Z,0
2017-02-06T04:39:40.804Z,0
2017-02-06T04:40:24.779Z,0
2017-02-06T04:41:07.986Z,0
2017-02-06T04:41:50.281Z,0
2017-02-06T04:42:31.294Z,0
2017-02-06T04:43:13.416Z,0
2017-02-06T04:43:57.301Z,0
2017-02-06T04:44:39.485Z,0
2017-02-06T04:45:23.346Z,0
2017-02-06T04:46:05.666Z,0
2017-02-06T04:46:46.953Z,0
2017-02-06T04:47:28.172Z,0
2017-02-06T04:48:10.273Z,0
2017-02-06T04:48:55.504Z,0
2017-02-06T04:49:38.320Z,0
2017-02-06T04:50:24.267Z,0
2017-02-06T04:51:08.286Z,0
2017-02-06T04:51:48.816Z,0
2017-02-06T04:52:31.872Z,0
2017-02-06T04:53:14.771Z,0
2017-02-06T04:53:55.297Z,0
2017-02-06T04:54:37.330Z,0
2017-02-06T04:55:18.828Z,0
2017-02-06T04:56:00.365Z,0
2017-02-06T04:56:46.211Z,0
2017-02-06T04:57:27.246Z,0
2017-02-06T04:58:08.467Z,0
2017-02-06T04:58:58.201Z,0
2017-02-06T04:59:44.255Z,0
2017-02-06T05:00:25.563Z,0
2017-02-06T05:01:07.677Z,0
2017-02-06T05:01:50.682Z,0
2017-02-06T05:02:31.684Z,0
2017-02-06T05:03:13.695Z,0
2017-02-06T05:03:56.660Z,0
2017-02-06T05:06:29.315Z,0
2017-02-06T05:07:22.001Z,0
2017-02-06T05:08:11.175Z,0
2017-02-06T05:08:55.093Z,0
2017-02-06T05:09:37.073Z,0
2017-02-06T05:10:25.022Z,0
2017-02-06T05:11:06.128Z,0
2017-02-06T05:11:47.382Z,0
2017-02-06T05:12:27.872Z,0
2017-02-06T05:13:08.432Z,0
2017-02-06T05:13:48.921Z,0
2017-02-06T05:14:29.372Z,0
2017-02-06T05:15:09.857Z,0
2017-02-06T05:15:50.410Z,0
2017-02-06T05:16:31.225Z,0
2017-02-06T05:17:12.317Z,0
2017-02-06T05:17:53.041Z,0
2017-02-06T05:18:33.789Z,0
2017-02-06T05:19:14.529Z,0
2017-02-06T05:19:55.079Z,0
2017-02-06T05:20:35.537Z,0
2017-02-06T05:21:16.374Z,0
2017-02-06T05:21:56.989Z,0
2017-02-06T05:22:37.469Z,0
2017-02-06T05:23:18.185Z,0
2017-02-06T05:23:58.733Z,0
2017-02-06T05:24:39.245Z,0
2017-02-06T05:25:19.804Z,0
2017-02-06T05:26:00.307Z,0
2017-02-06T05:26:40.766Z,0
2017-02-06T05:27:21.259Z,0
2017-02-06T05:28:01.811Z,0
2017-02-06T05:28:42.274Z,0
2017-02-06T05:29:22.923Z,0
2017-02-06T05:30:03.441Z,0
2017-02-06T05:30:43.924Z,0
2017-02-06T05:31:24.407Z,0
2017-02-06T05:32:04.906Z,0
2017-02-06T05:32:45.409Z,0
2017-02-06T05:33:25.928Z,0
2017-02-06T05:34:06.384Z,0
2017-02-06T05:34:46.822Z,0
2017-02-06T05:35:27.299Z,0
2017-02-06T05:36:07.793Z,0
2017-02-06T05:36:48.325Z,0
2017-02-06T05:37:28.803Z,0
2017-02-06T05:38:09.282Z,0
2017-02-06T05:38:49.778Z,0
2017-02-06T05:39:30.273Z,0
2017-02-06T05:40:10.807Z,0
2017-02-06T05:40:51.238Z,0
2017-02-06T05:41:31.739Z,0
2017-02-06T05:42:12.243Z,0
2017-02-06T05:42:52.719Z,0
2017-02-06T05:43:33.229Z,0
2017-02-06T05:44:13.678Z,0
2017-02-06T05:44:54.179Z,0
2017-02-06T05:45:34.644Z,0
2017-02-06T05:46:15.142Z,0
2017-02-06T05:46:55.638Z,0
2017-02-06T05:47:36.100Z,0
2017-02-06T05:48:16.613Z,0
2017-02-06T05:48:57.105Z,0
2017-02-06T05:49:37.655Z,0
2017-02-06T05:50:18.140Z,0
2017-02-06T05:50:58.629Z,0
2017-02-06T05:51:39.129Z,0
2017-02-06T05:52:19.631Z,0
2017-02-06T05:53:00.133Z,0
2017-02-06T05:53:40.602Z,0
2017-02-06T05:54:22.981Z,0
2017-02-06T05:55:03.487Z,0
2017-02-06T05:55:43.976Z,0
2017-02-06T05:56:24.426Z,0
2017-02-06T05:57:04.947Z,0
2017-02-06T05:57:45.436Z,0
2017-02-06T05:58:25.932Z,0
2017-02-06T05:59:06.416Z,0
2017-02-06T05:59:46.896Z,0
2017-02-06T06:00:27.363Z,0
2017-02-06T06:01:07.859Z,0
2017-02-06T06:01:48.357Z,0
2017-02-06T06:02:28.831Z,0
2017-02-06T06:03:09.331Z,0
2017-02-06T06:03:49.842Z,0
2017-02-06T06:04:30.311Z,0
2017-02-06T06:05:10.793Z,0
2017-02-06T06:05:51.258Z,0
2017-02-06T06:06:31.758Z,0
2017-02-06T06:07:12.247Z,0
2017-02-06T06:07:52.765Z,0
2017-02-06T06:08:33.233Z,0
2017-02-06T06:09:13.713Z,0
2017-02-06T06:09:54.201Z,0
2017-02-06T06:10:34.704Z,0
2017-02-06T06:11:15.178Z,0
2017-02-06T06:11:55.693Z,0
2017-02-06T06:12:36.162Z,0
2017-02-06T06:13:16.645Z,0
2017-02-06T06:13:57.127Z,0
2017-02-06T06:14:37.707Z,0
2017-02-06T06:15:18.152Z,0
2017-02-06T06:15:58.668Z,0
2017-02-06T06:16:39.178Z,0
2017-02-06T06:17:19.620Z,0
2017-02-06T06:18:00.118Z,0
2017-02-06T06:18:40.594Z,0
2017-02-06T06:19:21.096Z,0
2017-02-06T06:20:01.593Z,0
2017-02-06T06:20:42.091Z,0
2017-02-06T06:21:22.567Z,0
2017-02-06T06:22:03.054Z,0
2017-02-06T06:22:43.489Z,0
2017-02-06T06:23:24.004Z,0
2017-02-06T06:24:04.497Z,0
2017-02-06T06:24:44.974Z,0
2017-02-06T06:25:25.467Z,0
2017-02-06T06:26:05.950Z,0
2017-02-06T06:26:46.449Z,0
2017-02-06T06:27:26.960Z,0
2017-02-06T06:28:07.438Z,0
2017-02-06T06:28:47.935Z,0
2017-02-06T06:29:28.451Z,0
2017-02-06T06:30:08.927Z,0
2017-02-06T06:30:49.415Z,0
2017-02-06T06:31:29.905Z,0
2017-02-06T06:32:10.377Z,0
2017-02-06T06:32:50.895Z,0
2017-02-06T06:33:31.395Z,0
2017-02-06T06:34:11.909Z,0
2017-02-06T06:34:52.442Z,0
2017-02-06T06:35:32.969Z,0
2017-02-06T06:36:13.450Z,0
2017-02-06T06:36:54.016Z,0
2017-02-06T06:37:34.509Z,0
2017-02-06T06:38:14.991Z,0
2017-02-06T06:38:55.517Z,0
2017-02-06T06:39:35.988Z,0
2017-02-06T06:40:16.530Z,0
2017-02-06T06:40:57.032Z,0
2017-02-06T06:41:37.556Z,0
2017-02-06T06:42:18.055Z,0
2017-02-06T06:42:58.533Z,0
2017-02-06T06:43:39.062Z,0
2017-02-06T06:44:19.539Z,0
2017-02-06T06:44:59.978Z,0
2017-02-06T06:45:40.509Z,0
2017-02-06T06:46:21.027Z,0
2017-02-06T06:47:01.540Z,0
2017-02-06T06:47:42.034Z,0
2017-02-06T06:48:22.539Z,0
2017-02-06T06:49:03.061Z,0
2017-02-06T06:49:43.653Z,0
2017-02-06T06:50:24.139Z,0
2017-02-06T06:51:04.757Z,0
2017-02-06T06:51:45.237Z,0
2017-02-06T06:52:25.732Z,0
2017-02-06T06:53:06.227Z,0
2017-02-06T06:53:46.817Z,0
2017-02-06T06:54:27.301Z,0
2017-02-06T06:55:07.816Z,0
2017-02-06T06:55:48.378Z,0
2017-02-06T06:56:28.884Z,0
2017-02-06T06:57:09.434Z,0
2017-02-06T06:57:49.937Z,0
2017-02-06T06:58:30.412Z,0
2017-02-06T06:59:10.905Z,0
2017-02-06T06:59:51.456Z,0
2017-02-06T07:00:31.965Z,0
2017-02-06T07:01:12.467Z,0
2017-02-06T07:01:52.985Z,0
2017-02-06T07:02:33.587Z,0
2017-02-06T07:03:14.256Z,5
2017-02-06T07:03:54.910Z,5
2017-02-06T07:04:35.532Z,5
2017-02-06T07:05:16.211Z,5
2017-02-06T07:05:56.837Z,5
2017-02-06T07:06:37.334Z,5
2017-02-06T07:07:17.839Z,5
2017-02-06T07:07:58.326Z,5
2017-02-06T07:08:41.107Z,5
2017-02-06T07:09:21.286Z,5
2017-02-06T07:10:06.066Z,5
2017-02-06T07:10:45.941Z,5
2017-02-06T07:11:26.429Z,5
2017-02-06T07:14:00.638Z,5
2017-02-06T07:14:40.787Z,5
2017-02-06T07:15:21.269Z,5
2017-02-06T07:16:01.754Z,5
2017-02-06T07:16:42.257Z,5
2017-02-06T07:17:22.777Z,5
2017-02-06T07:18:03.272Z,5
2017-02-06T07:18:43.753Z,5
2017-02-06T07:19:24.319Z,5
2017-02-06T07:20:04.849Z,5
2017-02-06T07:20:45.526Z,10
2017-02-06T07:21:27.036Z,10
2017-02-06T07:22:07.584Z,10
2017-02-06T07:22:49.084Z,10
2017-02-06T07:23:29.554Z,10
2017-02-06T07:24:10.420Z,10
2017-02-06T07:24:50.937Z,10
2017-02-06T07:25:31.431Z,10
2017-02-06T07:26:11.941Z,15
2017-02-06T07:26:52.566Z,15
2017-02-06T07:27:33.110Z,15
2017-02-06T07:28:13.546Z,20
2017-02-06T07:28:54.267Z,20
2017-02-06T07:29:35.397Z,20
2017-02-06T07:30:20.303Z,20
2017-02-06T07:31:06.263Z,20
2017-02-06T07:31:53.163Z,20
2017-02-06T07:32:37.704Z,20
2017-02-06T07:33:18.241Z,20
2017-02-06T07:33:59.357Z,20
2017-02-06T07:34:39.861Z,20
2017-02-06T07:35:20.368Z,20
2017-02-06T07:36:00.885Z,15
2017-02-06T07:36:41.360Z,15
2017-02-06T07:37:21.934Z,15
2017-02-06T07:38:02.474Z,15
2017-02-06T07:38:43.011Z,15
2017-02-06T07:39:23.607Z,15
2017-02-06T07:40:04.136Z,15
2017-02-06T07:40:44.665Z,15
2017-02-06T07:41:25.193Z,15
2017-02-06T07:42:05.727Z,15
2017-02-06T07:42:46.374Z,15
2017-02-06T07:43:27.559Z,15
2017-02-06T07:44:08.055Z,15
2017-02-06T07:44:49.410Z,20
2017-02-06T07:45:29.899Z,20
2017-02-06T07:46:20.026Z,20
2017-02-06T07:47:07.521Z,20
2017-02-06T07:47:53.131Z,20
2017-02-06T07:48:39.129Z,20
2017-02-06T07:49:19.632Z,20
2017-02-06T07:50:00.191Z,20
2017-02-06T07:50:40.675Z,20
2017-02-06T07:51:21.203Z,20
2017-02-06T07:52:02.366Z,20
2017-02-06T07:52:42.903Z,20
2017-02-06T07:53:23.410Z,20
2017-02-06T07:55:37.991Z,20
2017-02-06T07:56:18.483Z,20
2017-02-06T07:56:59.026Z,20
2017-02-06T07:57:39.535Z,20
2017-02-06T07:58:20.056Z,20
2017-02-06T07:59:00.544Z,20
2017-02-06T07:59:41.106Z,25
2017-02-06T08:00:21.620Z,25
2017-02-06T08:01:02.088Z,25
2017-02-06T08:01:43.168Z,25
2017-02-06T08:02:23.711Z,25
2017-02-06T08:03:04.391Z,25
2017-02-06T08:03:44.936Z,25
2017-02-06T08:04:25.583Z,25
2017-02-06T08:05:06.130Z,25
2017-02-06T08:05:46.650Z,25
2017-02-06T08:06:27.219Z,25
2017-02-06T08:07:07.869Z,25
2017-02-06T08:07:48.343Z,25
2017-02-06T08:08:28.826Z,25
2017-02-06T08:09:09.301Z,25
2017-02-06T08:09:51.300Z,25
2017-02-06T08:10:31.922Z,25
2017-02-06T08:11:12.593Z,25
2017-02-06T08:11:53.231Z,25
2017-02-06T08:12:33.711Z,25
2017-02-06T08:13:14.232Z,25
2017-02-06T08:13:55.483Z,25
2017-02-06T08:14:35.684Z,25
2017-02-06T08:15:16.327Z,25
2017-02-06T08:15:58.537Z,25
2017-02-06T08:16:39.104Z,25
2017-02-06T08:17:19.697Z,25
2017-02-06T08:18:00.222Z,25
2017-02-06T08:18:40.747Z,25
2017-02-06T08:19:21.272Z,30
2017-02-06T08:20:01.958Z,30
2017-02-06T08:20:42.611Z,30
2017-02-06T08:21:23.240Z,30
2017-02-06T08:22:04.220Z,35
2017-02-06T08:22:44.738Z,35
2017-02-06T08:23:25.328Z,35
2017-02-06T08:24:06.056Z,35
2017-02-06T08:24:47.719Z,35
2017-02-06T08:25:28.548Z,35
2017-02-06T08:26:09.806Z,35
2017-02-06T08:26:50.801Z,40
2017-02-06T08:27:31.996Z,40
2017-02-06T08:28:12.687Z,40
2017-02-06T08:28:54.436Z,40
2017-02-06T08:29:34.999Z,40
2017-02-06T08:30:15.493Z,40
2017-02-06T08:30:56.154Z,45
2017-02-06T08:31:36.886Z,45
2017-02-06T08:32:17.527Z,45
2017-02-06T08:32:58.172Z,45
2017-02-06T08:33:38.826Z,50
2017-02-06T08:34:19.332Z,50
2017-02-06T08:35:00.665Z,50
2017-02-06T08:35:41.201Z,50
2017-02-06T08:36:21.731Z,50
2017-02-06T08:37:02.275Z,50
2017-02-06T08:37:42.799Z,50
2017-02-06T08:38:23.262Z,55
2017-02-06T08:39:05.491Z,55
2017-02-06T08:39:47.538Z,55
2017-02-06T08:40:28.098Z,55
2017-02-06T08:41:08.749Z,55
2017-02-06T08:41:50.074Z,55
2017-02-06T08:42:31.449Z,55
2017-02-06T08:43:11.931Z,55
2017-02-06T08:43:53.370Z,55
2017-02-06T08:44:36.379Z,55
2017-02-06T08:45:19.713Z,55
2017-02-06T08:46:01.445Z,55
2017-02-06T08:46:41.975Z,55
2017-02-06T08:47:22.609Z,55
2017-02-06T08:48:03.317Z,55
2017-02-06T08:48:43.920Z,55
2017-02-06T08:49:24.481Z,55
2017-02-06T08:52:08.922Z,50
2017-02-06T08:52:56.808Z,50
2017-02-06T08:53:40.893Z,50
2017-02-06T08:54:30.011Z,50
2017-02-06T08:55:10.616Z,50
2017-02-06T08:55:51.122Z,50
2017-02-06T08:56:31.803Z,50
2017-02-06T08:57:13.259Z,50
2017-02-06T08:57:58.382Z,50
2017-02-06T08:58:38.974Z,50
2017-02-06T08:59:19.446Z,50
2017-02-06T08:59:59.964Z,50
2017-02-06T09:00:40.497Z,50
2017-02-06T09:01:21.142Z,50
2017-02-06T09:02:02.556Z,50
2017-02-06T09:02:43.081Z,55
2017-02-06T09:03:25.443Z,55
2017-02-06T09:04:07.761Z,55
2017-02-06T09:04:49.763Z,55
2017-02-06T09:05:31.248Z,55
2017-02-06T09:06:12.380Z,55
2017-02-06T09:06:53.467Z,60
2017-02-06T09:12:19.909Z,65
2017-02-06T09:13:00.297Z,65
2017-02-06T09:13:40.763Z,65
2017-02-06T09:14:24.632Z,65
2017-02-06T09:15:06.958Z,65
2017-02-06T09:17:48.004Z,65
2017-02-06T09:18:28.406Z,65
2017-02-06T09:19:08.917Z,65
2017-02-06T09:19:49.427Z,65
2017-02-06T09:20:29.910Z,65
2017-02-06T09:21:10.393Z,65
2017-02-06T09:21:50.850Z,65
2017-02-06T09:22:31.399Z,65
2017-02-06T09:23:11.914Z,65
2017-02-06T09:23:52.410Z,65
2017-02-06T09:24:32.903Z,65
2017-02-06T09:25:13.385Z,65
2017-02-06T09:25:53.888Z,65
2017-02-06T09:26:34.398Z,65
2017-02-06T09:27:14.903Z,65
2017-02-06T09:27:55.362Z,65
2017-02-06T09:28:35.855Z,65
2017-02-06T09:29:16.339Z,65
2017-02-06T09:29:57.002Z,65
2017-02-06T09:30:37.496Z,65
2017-02-06T09:31:18.019Z,65
2017-02-06T09:31:59.145Z,65
2017-02-06T09:32:40.593Z,65
2017-02-06T09:33:21.165Z,65
2017-02-06T09:34:01.679Z,70
2017-02-06T09:34:42.659Z,70
2017-02-06T09:35:23.908Z,70
2017-02-06T09:36:05.963Z,70
2017-02-06T09:36:47.418Z,70
2017-02-06T09:37:28.332Z,70
2017-02-06T09:38:09.241Z,75
2017-02-06T09:38:49.806Z,75
2017-02-06T09:39:30.928Z,75
2017-02-06T09:40:11.458Z,75
2017-02-06T09:40:52.008Z,80
2017-02-06T09:41:32.521Z,80
2017-02-06T09:42:13.053Z,80
2017-02-06T09:42:53.542Z,85
2017-02-06T09:43:34.169Z,85
2017-02-06T09:44:14.707Z,85
2017-02-06T09:44:55.243Z,85
2017-02-06T09:45:36.747Z,90
2017-02-06T09:46:17.310Z,90
2017-02-06T09:46:57.762Z,90
2017-02-06T09:47:38.291Z,95
2017-02-06T09:48:18.887Z,95
2017-02-06T09:48:59.929Z,95
2017-02-06T09:49:40.455Z,100
2017-02-06T09:50:21.016Z,100
2017-02-06T09:51:01.501Z,105
2017-02-06T09:51:42.039Z,105
2017-02-06T09:52:22.537Z,105
2017-02-06T09:53:03.024Z,110
2017-02-06T09:53:43.554Z,110
2017-02-06T09:54:24.091Z,115
2017-02-06T09:55:04.670Z,115
2017-02-06T09:55:45.184Z,115
2017-02-06T09:56:25.667Z,120
2017-02-06T09:57:06.197Z,120
2017-02-06T09:57:46.731Z,120
2017-02-06T09:58:27.237Z,120
2017-02-06T09:59:07.719Z,120
2017-02-06T09:59:49.895Z,125
2017-02-06T10:00:30.393Z,125
2017-02-06T10:01:10.916Z,125
2017-02-06T10:01:51.366Z,130
2017-02-06T10:02:32.004Z,130
2017-02-06T10:03:14.417Z,130
2017-02-06T10:03:57.519Z,130
2017-02-06T10:04:38.459Z,135
2017-02-06T10:05:18.972Z,135
2017-02-06T10:05:59.499Z,135
2017-02-06T10:06:42.861Z,135
2017-02-06T10:07:23.339Z,140
2017-02-06T10:08:03.925Z,140
2017-02-06T10:08:44.601Z,140
2017-02-06T10:09:25.083Z,140
2017-02-06T10:10:05.572Z,140
2017-02-06T10:10:46.085Z,140
2017-02-06T10:11:26.628Z,140
2017-02-06T10:12:11.835Z,140
2017-02-06T10:12:52.339Z,145
2017-02-06T10:13:32.890Z,145
2017-02-06T10:14:13.476Z,145
2017-02-06T10:14:54.054Z,150
2017-02-06T10:15:34.640Z,150
2017-02-06T10:16:15.181Z,150
2017-02-06T10:16:55.628Z,150
2017-02-06T10:17:36.204Z,150
2017-02-06T10:18:16.676Z,155
2017-02-06T10:18:57.208Z,155
2017-02-06T10:19:37.868Z,155
2017-02-06T10:20:18.332Z,155
2017-02-06T10:20:58.809Z,155
2017-02-06T10:21:39.672Z,160
2017-02-06T10:22:20.138Z,155
2017-02-06T10:23:00.930Z,160
2017-02-06T10:23:41.546Z,160
2017-02-06T10:24:22.225Z,165
2017-02-06T10:25:04.596Z,165
2017-02-06T10:25:45.130Z,165
2017-02-06T10:26:25.797Z,160
2017-02-06T10:27:06.328Z,170
2017-02-06T10:27:47.035Z,175
2017-02-06T10:28:27.700Z,175
2017-02-06T10:29:09.751Z,180
2017-02-06T10:29:50.242Z,180
2017-02-06T10:30:31.156Z,170
2017-02-06T10:31:11.685Z,185
2017-02-06T10:31:52.426Z,190
2017-02-06T10:32:33.512Z,195
2017-02-06T10:33:14.050Z,195
2017-02-06T10:33:54.569Z,195
2017-02-06T10:34:35.087Z,190
2017-02-06T10:35:15.679Z,195
2017-02-06T10:35:56.298Z,195
2017-02-06T10:36:36.849Z,185
2017-02-06T10:37:17.372Z,195
2017-02-06T10:37:57.863Z,195
2017-02-06T10:38:38.330Z,205
2017-02-06T10:39:18.791Z,205
2017-02-06T10:39:59.377Z,200
2017-02-06T10:41:22.524Z,205
2017-02-06T10:42:03.019Z,190
2017-02-06T10:42:43.474Z,185
2017-02-06T10:43:23.951Z,195
2017-02-06T10:44:04.494Z,195
2017-02-06T10:44:45.007Z,200
2017-02-06T10:45:25.618Z,200
2017-02-06T10:46:06.277Z,205
2017-02-06T10:46:46.877Z,195
2017-02-06T10:47:27.467Z,200
2017-02-06T10:48:08.027Z,190
2017-02-06T10:48:48.610Z,190
2017-02-06T10:49:32.686Z,200
2017-02-06T10:50:16.286Z,195
2017-02-06T10:51:00.789Z,190
2017-02-06T10:51:41.306Z,185
2017-02-06T10:52:21.790Z,185
2017-02-06T10:53:02.280Z,175
2017-02-06T10:53:42.813Z,150
2017-02-06T10:54:24.350Z,165
2017-02-06T10:55:04.225Z,205
2017-02-06T10:55:44.722Z,210
2017-02-06T10:56:25.281Z,210
2017-02-06T10:57:05.760Z,190
2017-02-06T10:57:46.267Z,205
2017-02-06T10:58:26.818Z,205
2017-02-06T10:59:07.397Z,205
2017-02-06T10:59:47.998Z,215
2017-02-06T11:00:28.468Z,225
2017-02-06T11:01:08.969Z,220
2017-02-06T11:01:49.589Z,215
2017-02-06T11:02:30.041Z,210
2017-02-06T11:03:10.524Z,235
2017-02-06T11:03:51.073Z,225
2017-02-06T11:04:31.549Z,220
2017-02-06T11:05:12.244Z,210
2017-02-06T11:05:52.785Z,220
2017-02-06T11:08:16.988Z,205
2017-02-06T11:09:04.448Z,215
2017-02-06T11:09:47.488Z,210
2017-02-06T11:10:27.994Z,230
2017-02-06T11:11:08.521Z,240
2017-02-06T11:11:49.046Z,245
2017-02-06T11:12:29.515Z,235
2017-02-06T11:13:10.113Z,235
2017-02-06T11:13:50.617Z,230
2017-02-06T11:14:31.100Z,225